Allen, Maryland
Current Conditions -  °F | °C
As of 4:54 PM on Thursday 18 Dec 2014 (Local Time) from KSBY Reporting Station
Clear Clear  
Wind Chill:   Ceiling: Unl
Heat Index:   Visibility: 10mi
Dew Point: -5°   Wind: 9mph
Humidity: 53%   Direction: 300°WNW
Pressure: 30.07"   Gusts: NA
Location:  38.29°N, 75.69°W
Report Text: KSBY 182154Z 30008KT 10SM CLR 04/M05 A3007 RMK AO2 SLP187 T00391050
Loading
Personal Weather Stations






























Interactive Weather Map New forecast layout! Learn more

10-Day Weather Forecast

Advertisements
Track Severe Weather on mobile